createdAt,value
2019-04-05T00:01:15.251Z,99943.44
2019-04-05T00:03:54.519Z,99933.69
2019-04-05T00:06:24.798Z,99933.22
2019-04-05T00:08:55.161Z,99927.25
2019-04-05T00:11:25.533Z,99924.96
2019-04-05T00:13:58.440Z,99927.25
2019-04-05T00:16:30.414Z,99927.76
2019-04-05T00:19:00.715Z,99924.70
2019-04-05T00:21:31.055Z,99920.31
2019-04-05T00:24:01.304Z,99920.48
2019-04-05T00:26:34.914Z,99921.30
2019-04-05T00:29:08.111Z,99921.38
2019-04-05T00:31:40.575Z,99916.70
2019-04-05T00:34:14.608Z,99925.89
2019-04-05T00:36:44.806Z,99930.31
2019-04-05T00:39:14.944Z,99939.09
2019-04-05T00:41:45.118Z,99938.66
2019-04-05T00:44:15.290Z,99947.43
2019-04-05T00:46:48.507Z,99951.93
2019-04-05T00:49:18.634Z,99946.13
2019-04-05T00:51:48.785Z,99943.76
2019-04-05T00:54:19.034Z,99940.19
2019-04-05T00:56:49.226Z,99938.05
2019-04-05T00:59:19.407Z,99937.50
2019-04-05T01:01:49.575Z,99938.86
2019-04-05T01:04:19.724Z,99935.30
2019-04-05T01:06:49.867Z,99935.03
2019-04-05T01:09:20.001Z,99940.97
2019-04-05T01:11:50.568Z,99945.66
2019-04-05T01:14:20.843Z,99944.99
2019-04-05T01:16:50.988Z,99939.66
2019-04-05T01:19:21.884Z,99941.75
2019-04-05T01:21:53.542Z,99941.36
2019-04-05T01:24:24.996Z,99939.53
2019-04-05T01:26:56.270Z,99933.05
2019-04-05T01:29:26.475Z,99930.96
2019-04-05T01:31:56.659Z,99930.11
2019-04-05T01:34:28.640Z,99926.31
2019-04-05T01:36:59.233Z,99939.92
2019-04-05T01:39:29.352Z,99939.97
2019-04-05T01:41:59.771Z,99943.38
2019-04-05T01:44:31.332Z,99949.42
2019-04-05T01:47:02.514Z,99962.03
2019-04-05T01:49:32.650Z,99964.20
2019-04-05T01:52:02.768Z,99975.19
2019-04-05T01:54:32.998Z,99974.64
2019-04-05T01:57:04.327Z,99978.98
2019-04-05T01:59:34.689Z,99979.14
2019-04-05T02:02:04.910Z,99983.52
2019-04-05T02:04:35.627Z,99976.23
2019-04-05T02:07:05.797Z,99987.67
2019-04-05T02:09:36.621Z,99988.02
2019-04-05T02:12:06.780Z,99983.64
2019-04-05T02:14:36.947Z,99984.49
2019-04-05T02:17:07.964Z,99997.18
2019-04-05T02:19:39.286Z,99998.11
2019-04-05T02:22:09.716Z,100001.02
2019-04-05T02:24:39.870Z,100002.81
2019-04-05T02:27:10.178Z,100007.11
2019-04-05T02:29:41.316Z,100005.52
2019-04-05T02:32:11.546Z,100008.84
2019-04-05T02:34:41.659Z,100006.91
2019-04-05T02:37:11.825Z,100007.34
2019-04-05T02:39:42.046Z,100014.05
2019-04-05T02:42:13.827Z,100014.91
2019-04-05T02:44:49.201Z,100012.80
2019-04-05T02:47:19.888Z,100019.86
2019-04-05T02:49:52.477Z,100017.19
2019-04-05T02:52:23.473Z,100006.14
2019-04-05T02:54:55.566Z,99999.11
2019-04-05T02:57:33.078Z,100008.34
2019-04-05T03:00:03.459Z,100000.23
2019-04-05T03:02:36.457Z,99991.11
2019-04-05T03:05:06.667Z,99992.81
2019-04-05T03:07:37.179Z,99994.09
2019-04-05T03:10:07.746Z,99986.62
2019-04-05T03:12:42.654Z,99990.14
2019-04-05T03:15:13.737Z,99995.84
2019-04-05T03:17:43.937Z,100001.59
2019-04-05T03:20:14.049Z,99997.09
2019-04-05T03:22:44.244Z,99998.16
2019-04-05T03:25:14.475Z,99994.53
2019-04-05T03:27:47.583Z,100000.63
2019-04-05T03:30:18.356Z,100000.30
2019-04-05T03:32:49.189Z,99992.92
2019-04-05T03:35:22.835Z,99999.16
2019-04-05T03:37:53.011Z,100003.37
2019-04-05T03:40:23.870Z,100004.19
2019-04-05T03:42:54.213Z,100012.09
2019-04-05T03:45:26.367Z,100012.67
2019-04-05T03:47:56.608Z,100010.70
2019-04-05T03:50:34.409Z,100003.33
2019-04-05T03:53:08.037Z,100010.06
2019-04-05T03:55:38.162Z,100010.95
2019-04-05T03:58:08.814Z,100006.97
2019-04-05T04:00:38.932Z,100009.85
2019-04-05T04:03:09.044Z,100010.60
2019-04-05T04:05:39.402Z,100011.92
2019-04-05T04:08:13.773Z,100013.34
2019-04-05T04:10:44.281Z,100005.01
2019-04-05T04:13:14.441Z,100013.23
2019-04-05T04:15:45.097Z,100003.58
2019-04-05T04:18:17.076Z,100004.55
2019-04-05T04:20:50.570Z,100012.09
2019-04-05T04:23:24.195Z,100010.35
2019-04-05T04:25:55.051Z,100006.39
2019-04-05T04:28:25.864Z,100007.32
2019-04-05T04:31:04.758Z,100006.57
2019-04-05T04:33:35.054Z,100009.17
2019-04-05T04:36:07.778Z,100013.05
2019-04-05T04:38:43.036Z,100010.91
2019-04-05T04:41:13.699Z,100012.20
2019-04-05T04:43:47.461Z,100013.48
2019-04-05T04:46:19.229Z,100015.16
2019-04-05T04:48:51.184Z,100015.66
2019-04-05T04:51:28.430Z,100020.14
2019-04-05T04:54:06.318Z,100037.28
2019-04-05T04:56:36.567Z,100031.94
2019-04-05T04:59:06.775Z,100041.59
2019-04-05T05:01:37.345Z,100047.75
2019-04-05T05:04:11.339Z,100057.20
2019-04-05T05:06:42.139Z,100063.30
2019-04-05T05:09:13.870Z,100060.70
2019-04-05T05:11:44.148Z,100059.84
2019-04-05T05:14:14.683Z,100059.24
2019-04-05T05:16:55.195Z,100062.59
2019-04-05T05:19:32.228Z,100064.88
2019-04-05T05:24:49.209Z,100068.90
2019-04-05T05:27:20.292Z,100075.13
2019-04-05T05:29:52.552Z,100076.62
2019-04-05T05:32:25.394Z,100083.08
2019-04-05T05:35:01.844Z,100080.77
2019-04-05T05:37:27.942Z,100080.66
2019-04-05T05:40:00.986Z,100084.26
2019-04-05T05:42:31.223Z,100083.57
2019-04-05T05:45:01.540Z,100093.23
2019-04-05T05:47:32.803Z,100099.72
2019-04-05T05:50:08.853Z,100104.44
2019-04-05T05:52:40.207Z,100109.28
2019-04-05T05:55:10.605Z,100115.44
2019-04-05T05:57:40.817Z,100105.28
2019-04-05T06:00:12.183Z,100108.75
2019-04-05T06:02:42.433Z,100102.75
2019-04-05T06:05:12.880Z,100106.17
2019-04-05T06:07:43.148Z,100097.27
2019-04-05T06:10:13.495Z,100102.16
2019-04-05T06:12:43.852Z,100106.21
2019-04-05T06:15:15.493Z,100103.97
2019-04-05T06:17:45.693Z,100108.95
2019-04-05T06:20:16.121Z,100107.17
2019-04-05T06:22:47.709Z,100103.55
2019-04-05T06:25:19.010Z,100100.23
2019-04-05T06:27:49.405Z,100099.84
2019-04-05T06:30:19.776Z,100102.88
2019-04-05T06:32:50.016Z,100098.45
2019-04-05T06:35:20.157Z,100101.48
2019-04-05T06:37:50.419Z,100106.80
2019-04-05T06:40:20.661Z,100102.52
2019-04-05T06:42:50.943Z,100111.22
2019-04-05T06:45:21.272Z,100113.85
2019-04-05T06:47:51.617Z,100111.90
2019-04-05T06:50:22.111Z,100106.66
2019-04-05T06:52:52.400Z,100106.44
2019-04-05T06:55:22.619Z,100103.38
2019-04-05T06:57:52.994Z,100111.91
2019-04-05T07:00:29.541Z,100115.67
2019-04-05T07:03:00.213Z,100116.56
2019-04-05T07:05:31.482Z,100119.36
2019-04-05T07:08:01.827Z,100108.28
2019-04-05T07:10:32.324Z,100111.75
2019-04-05T07:13:02.983Z,100113.81
2019-04-05T07:15:33.215Z,100118.06
2019-04-05T07:18:03.528Z,100121.52
2019-04-05T07:20:33.832Z,100125.98
2019-04-05T07:23:04.103Z,100122.37
2019-04-05T07:25:34.491Z,100127.27
2019-04-05T07:28:04.660Z,100127.70
2019-04-05T07:30:34.929Z,100126.05
2019-04-05T07:33:05.309Z,100135.64
2019-04-05T07:35:35.511Z,100132.97
2019-04-05T07:38:06.093Z,100132.01
2019-04-05T07:40:36.428Z,100127.70
2019-04-05T07:43:09.721Z,100131.16
2019-04-05T07:45:39.984Z,100132.01
2019-04-05T07:48:10.230Z,100123.09
2019-04-05T07:50:40.599Z,100132.16
2019-04-05T07:53:11.190Z,100138.18
2019-04-05T07:55:41.376Z,100143.24
2019-04-05T07:58:11.557Z,100141.78
2019-04-05T08:00:45.821Z,100139.60
2019-04-05T08:03:16.645Z,100140.03
2019-04-05T08:05:47.970Z,100140.95
2019-04-05T08:08:30.956Z,100142.56
2019-04-05T08:11:02.332Z,100140.42
2019-04-05T08:13:36.590Z,100143.99
2019-04-05T08:16:06.893Z,100140.78
2019-04-05T08:18:37.038Z,100141.20
2019-04-05T08:21:07.350Z,100138.89
2019-04-05T08:23:37.526Z,100140.35
2019-04-05T08:26:07.750Z,100141.13
2019-04-05T08:28:38.027Z,100137.53
2019-04-05T08:31:10.805Z,100137.73
2019-04-05T08:33:40.506Z,100134.24
2019-04-05T08:36:10.761Z,100139.28
2019-04-05T08:38:40.983Z,100145.69
2019-04-05T08:41:11.203Z,100142.63
2019-04-05T08:43:41.470Z,100144.33
2019-04-05T08:46:11.716Z,100142.05
2019-04-05T08:48:41.867Z,100137.51
2019-04-05T08:51:12.133Z,100145.19
2019-04-05T08:53:42.284Z,100143.41
2019-04-05T08:56:13.573Z,100144.73
2019-04-05T08:58:43.718Z,100148.45
2019-04-05T09:01:14.024Z,100147.90
2019-04-05T09:03:44.262Z,100148.83
2019-04-05T09:06:14.521Z,100153.13
2019-04-05T09:08:44.969Z,100149.20
2019-04-05T09:11:15.185Z,100150.39
2019-04-05T09:13:45.354Z,100143.48
2019-04-05T09:16:15.671Z,100157.23
2019-04-05T09:18:45.834Z,100158.36
2019-04-05T09:21:17.783Z,100163.80
2019-04-05T09:23:49.060Z,100162.28
2019-04-05T09:26:21.007Z,100158.24
2019-04-05T09:28:51.229Z,100152.37
2019-04-05T09:31:21.426Z,100153.42
2019-04-05T09:33:56.073Z,100154.12
2019-04-05T09:36:29.729Z,100161.88
2019-04-05T09:39:00.053Z,100153.54
2019-04-05T09:41:30.249Z,100144.72
2019-04-05T09:44:00.643Z,100146.13
2019-04-05T09:46:45.487Z,100141.34
2019-04-05T09:49:03.337Z,100151.24
2019-04-05T09:51:34.717Z,100148.64
2019-04-05T09:54:04.916Z,100154.43
2019-04-05T09:56:35.107Z,100145.60
2019-04-05T09:59:05.662Z,100156.14
2019-04-05T10:01:36.031Z,100151.11
2019-04-05T10:04:06.219Z,100156.22
2019-04-05T10:06:36.397Z,100157.69
2019-04-05T10:09:08.979Z,100164.67
2019-04-05T10:11:39.251Z,100164.67
2019-04-05T10:14:09.517Z,100158.73
2019-04-05T10:16:39.666Z,100168.22
2019-04-05T10:19:10.061Z,100162.28
2019-04-05T10:21:40.337Z,100156.27
2019-04-05T10:24:10.612Z,100165.08
2019-04-05T10:26:40.835Z,100162.68
2019-04-05T10:29:11.053Z,100164.38
2019-04-05T10:31:41.258Z,100166.27
2019-04-05T10:34:11.498Z,100172.45
2019-04-05T10:36:41.665Z,100171.38
2019-04-05T10:39:11.941Z,100166.79
2019-04-05T10:41:42.205Z,100165.41
2019-04-05T10:44:13.455Z,100161.06
2019-04-05T10:46:43.632Z,100163.52
2019-04-05T10:49:15.265Z,100161.41
2019-04-05T10:51:46.595Z,100164.62
2019-04-05T10:54:16.771Z,100164.53
2019-04-05T10:56:47.019Z,100164.01
2019-04-05T10:59:17.206Z,100159.75
2019-04-05T11:01:47.427Z,100161.69
2019-04-05T11:04:17.580Z,100166.98
2019-04-05T11:06:47.858Z,100163.16
2019-04-05T11:09:19.147Z,100171.24
2019-04-05T11:12:30.703Z,100169.77
2019-04-05T11:15:02.248Z,100171.19
2019-04-05T11:17:33.436Z,100180.34
2019-04-05T11:20:20.228Z,100180.02
2019-04-05T11:22:38.022Z,100182.82
2019-04-05T11:25:08.885Z,100180.92
2019-04-05T11:27:39.470Z,100177.33
2019-04-05T11:30:11.396Z,100178.60
2019-04-05T11:32:41.865Z,100181.91
2019-04-05T11:35:14.954Z,100186.03
2019-04-05T11:37:44.662Z,100187.62
2019-04-05T11:40:15.506Z,100194.11
2019-04-05T11:42:48.768Z,100198.70
2019-04-05T11:45:20.266Z,100194.30
2019-04-05T11:47:53.687Z,100198.41
2019-04-05T11:50:34.567Z,100201.06
2019-04-05T11:52:57.064Z,100198.59
2019-04-05T11:55:27.270Z,100200.39
2019-04-05T11:57:58.628Z,100197.80
2019-04-05T12:00:53.413Z,100203.52
2019-04-05T12:03:23.954Z,100206.73
2019-04-05T12:05:54.785Z,100206.16
2019-04-05T12:08:26.772Z,100204.06
2019-04-05T12:10:59.113Z,100199.09
2019-04-05T12:13:32.323Z,100203.72
2019-04-05T12:16:03.673Z,100204.06
2019-04-05T12:18:36.192Z,100201.97
2019-04-05T12:21:06.773Z,100205.34
2019-04-05T12:23:41.271Z,100205.77
2019-04-05T12:26:13.470Z,100207.86
2019-04-05T12:28:44.416Z,100207.91
2019-04-05T12:31:15.732Z,100208.84
2019-04-05T12:33:49.185Z,100208.81
2019-04-05T12:36:22.277Z,100202.25
2019-04-05T12:38:54.363Z,100200.81
2019-04-05T12:41:25.595Z,100201.38
2019-04-05T12:43:56.572Z,100199.81
2019-04-05T12:46:28.353Z,100191.16
2019-04-05T12:48:58.861Z,100195.34
2019-04-05T12:51:29.752Z,100192.61
2019-04-05T12:54:00.527Z,100194.02
2019-04-05T12:56:31.252Z,100192.28
2019-04-05T12:59:02.662Z,100199.37
2019-04-05T13:01:38.905Z,100191.92
2019-04-05T13:04:11.761Z,100191.01
2019-04-05T13:06:45.050Z,100194.81
2019-04-05T13:09:21.385Z,100189.09
2019-04-05T13:11:57.525Z,100191.42
2019-04-05T13:14:31.438Z,100186.21
2019-04-05T13:17:02.990Z,100189.30
2019-04-05T13:19:36.491Z,100191.16
2019-04-05T13:22:12.495Z,100196.41
2019-04-05T13:24:42.726Z,100192.06
2019-04-05T13:27:16.770Z,100192.64
2019-04-05T13:29:49.203Z,100191.64
2019-04-05T13:32:22.368Z,100185.92
2019-04-05T13:34:53.578Z,100187.56
2019-04-05T13:37:25.801Z,100172.11
2019-04-05T13:39:57.670Z,100172.98
2019-04-05T13:42:31.530Z,100174.27
2019-04-05T13:45:03.847Z,100173.93
2019-04-05T13:47:37.884Z,100168.97
2019-04-05T13:50:11.426Z,100178.33
2019-04-05T13:52:44.460Z,100176.58
2019-04-05T13:55:16.855Z,100174.42
2019-04-05T13:57:51.391Z,100170.72
2019-04-05T14:00:21.951Z,100175.22
2019-04-05T14:02:52.523Z,100169.80
2019-04-05T14:05:22.870Z,100172.45
2019-04-05T14:08:09.777Z,100171.43
2019-04-05T14:10:31.204Z,100162.56
2019-04-05T14:13:01.331Z,100167.03
2019-04-05T14:15:31.653Z,100165.41
2019-04-05T14:18:02.071Z,100166.53
2019-04-05T14:20:32.309Z,100162.31
2019-04-05T14:23:02.605Z,100167.03
2019-04-05T14:25:32.767Z,100167.45
2019-04-05T14:28:04.649Z,100171.92
2019-04-05T14:30:35.021Z,100170.15
2019-04-05T14:33:05.245Z,100161.17
2019-04-05T14:35:35.415Z,100165.35
2019-04-05T14:38:05.635Z,100169.95
2019-04-05T14:40:36.909Z,100164.69
2019-04-05T14:43:07.113Z,100165.30
2019-04-05T14:45:37.287Z,100163.88
2019-04-05T14:48:07.575Z,100165.39
2019-04-05T14:50:37.840Z,100168.75
2019-04-05T14:53:08.045Z,100166.99
2019-04-05T14:55:38.265Z,100169.93
2019-04-05T14:58:10.492Z,100169.02
2019-04-05T15:00:40.343Z,100166.06
2019-04-05T15:03:10.795Z,100168.55
2019-04-05T15:05:41.071Z,100163.05
2019-04-05T15:08:11.399Z,100162.05
2019-04-05T15:10:41.607Z,100167.92
2019-04-05T15:13:11.813Z,100174.55
2019-04-05T15:15:42.038Z,100170.91
2019-04-05T15:18:12.236Z,100170.66
2019-04-05T15:20:42.449Z,100170.49
2019-04-05T15:23:14.049Z,100169.98
2019-04-05T15:25:44.456Z,100165.78
2019-04-05T15:28:16.965Z,100169.14
2019-04-05T15:30:49.691Z,100167.17
2019-04-05T15:33:21.139Z,100167.22
2019-04-05T15:35:51.580Z,100168.54
2019-04-05T15:38:22.830Z,100177.08
2019-04-05T15:40:53.202Z,100177.45
2019-04-05T15:43:23.624Z,100179.61
2019-04-05T15:45:53.903Z,100184.98
2019-04-05T15:48:24.168Z,100185.30
2019-04-05T15:50:57.677Z,100187.56
2019-04-05T15:53:26.344Z,100186.95
2019-04-05T15:55:57.205Z,100184.81
2019-04-05T15:58:27.377Z,100187.73
2019-04-05T16:00:57.782Z,100183.95
2019-04-05T16:03:27.974Z,100184.49
2019-04-05T16:05:58.483Z,100180.62
2019-04-05T16:08:28.987Z,100186.55
2019-04-05T16:10:59.402Z,100184.85
2019-04-05T16:13:30.067Z,100184.34
2019-04-05T16:16:00.387Z,100189.68
2019-04-05T16:18:30.586Z,100190.63
2019-04-05T16:21:00.756Z,100190.68
2019-04-05T16:23:31.324Z,100194.42
2019-04-05T16:26:01.506Z,100195.47
2019-04-05T16:28:31.918Z,100200.20
2019-04-05T16:31:02.052Z,100199.02
2019-04-05T16:33:32.239Z,100206.22
2019-04-05T16:36:02.618Z,100205.64
2019-04-05T16:38:33.197Z,100206.31
2019-04-05T16:41:03.491Z,100207.39
2019-04-05T16:43:33.874Z,100206.73
2019-04-05T16:46:04.133Z,100204.88
2019-04-05T16:48:34.485Z,100208.62
2019-04-05T16:51:04.839Z,100214.30
2019-04-05T16:53:35.138Z,100212.83
2019-04-05T16:56:05.327Z,100205.89
2019-04-05T16:58:35.702Z,100207.02
2019-04-05T17:01:05.912Z,100209.00
2019-04-05T17:03:36.196Z,100209.05
2019-04-05T17:06:06.492Z,100209.20
2019-04-05T17:08:36.814Z,100212.92
2019-04-05T17:11:12.808Z,100212.36
2019-04-05T17:13:44.280Z,100211.78
2019-04-05T17:16:14.880Z,100208.30
2019-04-05T17:18:45.107Z,100207.21
2019-04-05T17:21:15.264Z,100203.42
2019-04-05T17:23:45.672Z,100213.11
2019-04-05T17:26:15.891Z,100211.31
2019-04-05T17:28:46.271Z,100210.69
2019-04-05T17:31:16.519Z,100208.86
2019-04-05T17:33:46.992Z,100213.34
2019-04-05T17:36:17.143Z,100216.17
2019-04-05T17:38:47.425Z,100214.38
2019-04-05T17:41:17.593Z,100220.24
2019-04-05T17:43:47.840Z,100210.79
2019-04-05T17:46:18.087Z,100213.91
2019-04-05T17:48:51.968Z,100218.40
2019-04-05T17:51:23.508Z,100224.91
2019-04-05T17:53:54.081Z,100223.18
2019-04-05T17:56:24.491Z,100228.36
2019-04-05T17:58:56.684Z,100225.83
2019-04-05T18:01:26.850Z,100217.41
2019-04-05T18:03:57.235Z,100228.66
2019-04-05T18:06:28.488Z,100235.23
2019-04-05T18:08:58.859Z,100235.89
2019-04-05T18:11:29.424Z,100233.06
2019-04-05T18:13:59.700Z,100235.76
2019-04-05T18:16:30.251Z,100235.00
2019-04-05T18:19:01.559Z,100231.64
2019-04-05T18:21:31.714Z,100238.58
2019-04-05T18:24:02.111Z,100235.33
2019-04-05T18:26:32.336Z,100234.02
2019-04-05T18:29:05.748Z,100242.55
2019-04-05T18:31:35.989Z,100251.86
2019-04-05T18:34:06.310Z,100250.94
2019-04-05T18:36:36.452Z,100255.11
2019-04-05T18:39:08.301Z,100258.67
2019-04-05T18:41:38.648Z,100267.00
2019-04-05T18:44:08.850Z,100275.88
2019-04-05T18:46:39.051Z,100270.41
2019-04-05T18:49:09.191Z,100273.10
2019-04-05T18:51:39.366Z,100283.55
2019-04-05T18:54:09.597Z,100274.98
2019-04-05T18:56:39.804Z,100281.70
2019-04-05T18:59:09.958Z,100285.33
2019-04-05T19:01:40.263Z,100283.83
2019-04-05T19:04:10.429Z,100293.00
2019-04-05T19:06:40.988Z,100289.88
2019-04-05T19:09:12.219Z,100293.33
2019-04-05T19:11:43.462Z,100292.14
2019-04-05T19:14:13.732Z,100290.69
2019-04-05T19:16:43.882Z,100291.34
2019-04-05T19:19:17.469Z,100289.88
2019-04-05T19:21:46.013Z,100285.96
2019-04-05T19:24:16.136Z,100296.67
2019-04-05T19:26:46.473Z,100292.33
2019-04-05T19:29:16.637Z,100301.17
2019-04-05T19:49:30.561Z,100276.47
2019-04-05T19:52:00.756Z,100283.80
2019-04-05T19:54:30.872Z,100278.50
2019-04-05T19:57:01.114Z,100281.36
2019-04-05T19:59:31.197Z,100279.85
2019-04-05T20:02:01.417Z,100275.11
2019-04-05T20:04:31.604Z,100279.97
2019-04-05T20:07:01.864Z,100279.16
2019-04-05T20:09:32.194Z,100278.50
2019-04-05T20:12:02.487Z,100278.92
2019-04-05T20:14:32.749Z,100278.57
2019-04-05T20:17:02.945Z,100274.76
2019-04-05T20:19:33.101Z,100285.48
2019-04-05T20:22:03.402Z,100284.20
2019-04-05T20:24:33.585Z,100275.49
2019-04-05T20:27:03.884Z,100281.81
2019-04-05T20:29:34.153Z,100277.57
2019-04-05T20:32:04.432Z,100285.49
2019-04-05T20:34:34.684Z,100276.85
2019-04-05T20:37:04.930Z,100277.25
2019-04-05T20:39:35.048Z,100273.56
2019-04-05T20:42:05.314Z,100272.25
2019-04-05T20:44:35.474Z,100278.48
2019-04-05T20:47:05.638Z,100286.84
2019-04-05T20:49:35.810Z,100291.09
2019-04-05T20:52:10.117Z,100295.30
2019-04-05T20:54:40.206Z,100305.73
2019-04-05T20:57:10.360Z,100305.30
2019-04-05T20:59:40.460Z,100297.87
2019-04-05T21:02:10.638Z,100303.52
2019-04-05T21:04:40.762Z,100298.77
2019-04-05T21:07:10.980Z,100302.30
2019-04-05T21:09:41.148Z,100305.59
2019-04-05T21:12:11.384Z,100299.84
2019-04-05T21:14:41.528Z,100301.27
2019-04-05T21:17:11.742Z,100298.59
2019-04-05T21:19:41.916Z,100300.38
2019-04-05T21:22:12.104Z,100300.52
2019-04-05T21:24:42.357Z,100294.02
2019-04-05T21:27:12.739Z,100307.36
2019-04-05T21:29:43.154Z,100306.21
2019-04-05T21:32:13.299Z,100308.92
2019-04-05T21:34:43.528Z,100312.45
2019-04-05T21:37:13.678Z,100313.34
2019-04-05T21:39:43.866Z,100320.80
2019-04-05T21:42:14.129Z,100322.95
2019-04-05T21:44:46.327Z,100327.86
2019-04-05T21:47:16.249Z,100330.97
2019-04-05T21:49:46.451Z,100330.47
2019-04-05T21:52:16.589Z,100337.53
2019-04-05T21:54:47.853Z,100336.34
2019-04-05T21:57:18.197Z,100326.67
2019-04-05T21:59:48.376Z,100334.92
2019-04-05T22:02:18.500Z,100332.15
2019-04-05T22:04:49.829Z,100332.11
2019-04-05T22:07:20.082Z,100322.55
2019-04-05T22:09:50.257Z,100328.58
2019-04-05T22:12:28.937Z,100330.40
2019-04-05T22:14:59.039Z,100325.37
2019-04-05T22:17:29.229Z,100330.05
2019-04-05T22:19:59.418Z,100333.51
2019-04-05T22:22:29.574Z,100329.23
2019-04-05T22:24:59.823Z,100329.90
2019-04-05T22:27:29.958Z,100330.44
2019-04-05T22:30:00.236Z,100326.51
2019-04-05T22:32:30.445Z,100320.44
2019-04-05T22:35:00.646Z,100319.08
2019-04-05T22:37:30.893Z,100320.55
2019-04-05T22:40:01.130Z,100319.66
2019-04-05T22:42:31.288Z,100310.12
2019-04-05T22:45:01.480Z,100305.27
2019-04-05T22:47:31.706Z,100295.30
2019-04-05T22:50:01.919Z,100301.41
2019-04-05T22:52:32.066Z,100302.23
2019-04-05T22:55:11.102Z,100304.34
2019-04-05T22:57:34.387Z,100301.09
2019-04-05T23:00:04.846Z,100301.48
2019-04-05T23:02:38.470Z,100307.98
2019-04-05T23:05:08.774Z,100303.77
2019-04-05T23:07:38.954Z,100298.80
2019-04-05T23:10:09.450Z,100302.12
2019-04-05T23:12:39.619Z,100306.86
2019-04-05T23:15:10.103Z,100313.00
2019-04-05T23:17:40.225Z,100322.11
2019-04-05T23:20:11.313Z,100319.47
2019-04-05T23:22:41.706Z,100324.28
2019-04-05T23:25:21.417Z,100325.25
2019-04-05T23:27:43.889Z,100325.11
2019-04-05T23:30:14.567Z,100330.00
2019-04-05T23:32:44.706Z,100326.50
2019-04-05T23:35:14.924Z,100323.50
2019-04-05T23:37:45.070Z,100330.97
2019-04-05T23:40:15.193Z,100340.61
2019-04-05T23:42:45.379Z,100335.33
2019-04-05T23:45:15.556Z,100335.33
2019-04-05T23:47:45.768Z,100332.56
2019-04-05T23:50:16.245Z,100332.02
2019-04-05T23:52:46.421Z,100336.45
2019-04-05T23:55:16.573Z,100338.20
2019-04-05T23:57:46.779Z,100337.81
